sensor_id;sensor_type;location;lat;lon;timestamp;P1;durP1;ratioP1;P2;durP2;ratioP2
41685;SDS011;27370;42.764;23.432;2022-10-16T00:02:19;8.90;;;5.28;;
41685;SDS011;27370;42.764;23.432;2022-10-16T00:04:44;9.25;;;5.65;;
41685;SDS011;27370;42.764;23.432;2022-10-16T00:07:10;9.40;;;5.68;;
41685;SDS011;27370;42.764;23.432;2022-10-16T00:09:35;11.55;;;6.07;;
41685;SDS011;27370;42.764;23.432;2022-10-16T00:12:01;12.35;;;6.30;;
41685;SDS011;27370;42.764;23.432;2022-10-16T00:14:28;11.00;;;5.30;;
41685;SDS011;27370;42.764;23.432;2022-10-16T00:16:54;10.48;;;5.93;;
41685;SDS011;27370;42.764;23.432;2022-10-16T00:19:19;11.07;;;5.80;;
41685;SDS011;27370;42.764;23.432;2022-10-16T00:21:45;13.77;;;5.80;;
41685;SDS011;27370;42.764;23.432;2022-10-16T00:24:10;11.82;;;6.05;;
41685;SDS011;27370;42.764;23.432;2022-10-16T00:26:36;10.40;;;5.00;;
41685;SDS011;27370;42.764;23.432;2022-10-16T00:29:03;11.25;;;5.20;;
41685;SDS011;27370;42.764;23.432;2022-10-16T00:31:28;11.27;;;5.35;;
41685;SDS011;27370;42.764;23.432;2022-10-16T00:33:54;9.13;;;5.43;;
41685;SDS011;27370;42.764;23.432;2022-10-16T00:36:21;11.35;;;5.80;;
41685;SDS011;27370;42.764;23.432;2022-10-16T00:38:55;9.25;;;5.47;;
41685;SDS011;27370;42.764;23.432;2022-10-16T00:41:26;10.07;;;5.78;;
41685;SDS011;27370;42.764;23.432;2022-10-16T00:43:53;11.38;;;6.15;;
41685;SDS011;27370;42.764;23.432;2022-10-16T00:51:47;13.10;;;7.03;;
41685;SDS011;27370;42.764;23.432;2022-10-16T00:54:23;13.25;;;7.90;;
41685;SDS011;27370;42.764;23.432;2022-10-16T00:56:52;15.23;;;8.73;;
41685;SDS011;27370;42.764;23.432;2022-10-16T00:59:24;14.80;;;8.65;;
41685;SDS011;27370;42.764;23.432;2022-10-16T01:01:52;16.25;;;9.88;;
41685;SDS011;27370;42.764;23.432;2022-10-16T01:04:19;16.35;;;10.30;;
41685;SDS011;27370;42.764;23.432;2022-10-16T01:09:23;16.23;;;10.07;;
41685;SDS011;27370;42.764;23.432;2022-10-16T01:11:54;17.77;;;10.60;;
41685;SDS011;27370;42.764;23.432;2022-10-16T01:14:40;14.77;;;9.05;;
41685;SDS011;27370;42.764;23.432;2022-10-16T01:17:23;13.52;;;8.10;;
41685;SDS011;27370;42.764;23.432;2022-10-16T01:22:48;12.30;;;7.85;;
41685;SDS011;27370;42.764;23.432;2022-10-16T01:25:36;17.70;;;8.90;;
41685;SDS011;27370;42.764;23.432;2022-10-16T01:28:14;13.65;;;8.55;;
41685;SDS011;27370;42.764;23.432;2022-10-16T01:30:43;14.23;;;8.30;;
41685;SDS011;27370;42.764;23.432;2022-10-16T01:33:15;14.45;;;8.77;;
41685;SDS011;27370;42.764;23.432;2022-10-16T01:35:46;13.27;;;7.85;;
41685;SDS011;27370;42.764;23.432;2022-10-16T01:38:28;14.50;;;8.88;;
41685;SDS011;27370;42.764;23.432;2022-10-16T01:41:00;14.23;;;9.32;;
41685;SDS011;27370;42.764;23.432;2022-10-16T01:46:42;16.15;;;8.90;;
41685;SDS011;27370;42.764;23.432;2022-10-16T01:51:37;15.13;;;8.63;;
41685;SDS011;27370;42.764;23.432;2022-10-16T01:54:03;14.07;;;8.57;;
41685;SDS011;27370;42.764;23.432;2022-10-16T01:56:31;14.93;;;8.85;;
41685;SDS011;27370;42.764;23.432;2022-10-16T01:59:00;14.48;;;9.38;;
41685;SDS011;27370;42.764;23.432;2022-10-16T02:01:31;15.35;;;9.90;;
41685;SDS011;27370;42.764;23.432;2022-10-16T02:04:03;15.70;;;10.13;;
41685;SDS011;27370;42.764;23.432;2022-10-16T02:06:38;17.58;;;10.95;;
41685;SDS011;27370;42.764;23.432;2022-10-16T02:09:03;20.60;;;13.85;;
41685;SDS011;27370;42.764;23.432;2022-10-16T02:11:29;20.52;;;13.35;;
41685;SDS011;27370;42.764;23.432;2022-10-16T02:13:58;19.75;;;12.77;;
41685;SDS011;27370;42.764;23.432;2022-10-16T02:16:38;20.73;;;12.52;;
41685;SDS011;27370;42.764;23.432;2022-10-16T02:19:10;22.90;;;14.00;;
41685;SDS011;27370;42.764;23.432;2022-10-16T02:21:48;17.40;;;11.82;;
41685;SDS011;27370;42.764;23.432;2022-10-16T02:27:10;18.40;;;11.18;;
41685;SDS011;27370;42.764;23.432;2022-10-16T02:29:42;19.13;;;12.13;;
41685;SDS011;27370;42.764;23.432;2022-10-16T02:32:15;18.48;;;12.43;;
41685;SDS011;27370;42.764;23.432;2022-10-16T02:34:45;17.58;;;12.70;;
41685;SDS011;27370;42.764;23.432;2022-10-16T02:37:13;17.00;;;12.18;;
41685;SDS011;27370;42.764;23.432;2022-10-16T02:39:40;18.85;;;13.00;;
41685;SDS011;27370;42.764;23.432;2022-10-16T02:42:11;18.80;;;13.30;;
41685;SDS011;27370;42.764;23.432;2022-10-16T02:44:38;18.35;;;13.35;;
41685;SDS011;27370;42.764;23.432;2022-10-16T02:47:03;24.67;;;17.73;;
41685;SDS011;27370;42.764;23.432;2022-10-16T02:49:29;22.17;;;15.60;;
41685;SDS011;27370;42.764;23.432;2022-10-16T02:51:54;23.08;;;15.82;;
41685;SDS011;27370;42.764;23.432;2022-10-16T02:54:20;23.70;;;17.00;;
41685;SDS011;27370;42.764;23.432;2022-10-16T02:56:45;20.30;;;14.35;;
41685;SDS011;27370;42.764;23.432;2022-10-16T02:59:11;21.55;;;14.80;;
41685;SDS011;27370;42.764;23.432;2022-10-16T03:01:36;19.85;;;14.85;;
41685;SDS011;27370;42.764;23.432;2022-10-16T03:04:01;20.90;;;13.38;;
41685;SDS011;27370;42.764;23.432;2022-10-16T03:06:27;18.38;;;12.88;;
41685;SDS011;27370;42.764;23.432;2022-10-16T03:08:53;19.40;;;13.48;;
41685;SDS011;27370;42.764;23.432;2022-10-16T03:11:18;18.35;;;12.32;;
41685;SDS011;27370;42.764;23.432;2022-10-16T03:13:44;19.38;;;12.70;;
41685;SDS011;27370;42.764;23.432;2022-10-16T03:16:10;19.30;;;12.63;;
41685;SDS011;27370;42.764;23.432;2022-10-16T03:18:35;17.83;;;12.95;;
41685;SDS011;27370;42.764;23.432;2022-10-16T03:21:01;17.73;;;12.38;;
41685;SDS011;27370;42.764;23.432;2022-10-16T03:23:26;17.40;;;12.38;;
41685;SDS011;27370;42.764;23.432;2022-10-16T03:25:52;17.90;;;12.70;;
41685;SDS011;27370;42.764;23.432;2022-10-16T03:28:18;17.80;;;12.35;;
41685;SDS011;27370;42.764;23.432;2022-10-16T03:30:44;15.60;;;10.73;;
41685;SDS011;27370;42.764;23.432;2022-10-16T03:33:09;16.02;;;9.05;;
41685;SDS011;27370;42.764;23.432;2022-10-16T03:35:35;12.60;;;7.88;;
41685;SDS011;27370;42.764;23.432;2022-10-16T03:38:00;11.77;;;6.88;;
41685;SDS011;27370;42.764;23.432;2022-10-16T03:40:26;10.85;;;6.22;;
41685;SDS011;27370;42.764;23.432;2022-10-16T03:42:51;12.02;;;6.35;;
41685;SDS011;27370;42.764;23.432;2022-10-16T03:45:19;11.38;;;7.28;;
41685;SDS011;27370;42.764;23.432;2022-10-16T03:47:44;11.25;;;6.35;;
41685;SDS011;27370;42.764;23.432;2022-10-16T03:50:10;11.80;;;6.00;;
41685;SDS011;27370;42.764;23.432;2022-10-16T03:52:35;13.15;;;7.30;;
41685;SDS011;27370;42.764;23.432;2022-10-16T03:55:01;12.30;;;7.00;;
41685;SDS011;27370;42.764;23.432;2022-10-16T03:57:26;11.07;;;7.03;;
41685;SDS011;27370;42.764;23.432;2022-10-16T03:59:52;21.23;;;9.35;;
41685;SDS011;27370;42.764;23.432;2022-10-16T04:02:17;14.45;;;7.93;;
41685;SDS011;27370;42.764;23.432;2022-10-16T04:04:43;82.43;;;12.55;;
41685;SDS011;27370;42.764;23.432;2022-10-16T04:07:08;111.95;;;14.90;;
41685;SDS011;27370;42.764;23.432;2022-10-16T04:09:34;157.57;;;17.77;;
41685;SDS011;27370;42.764;23.432;2022-10-16T04:11:59;156.73;;;20.63;;
41685;SDS011;27370;42.764;23.432;2022-10-16T04:14:25;103.95;;;20.35;;
41685;SDS011;27370;42.764;23.432;2022-10-16T04:16:50;144.75;;;21.35;;
41685;SDS011;27370;42.764;23.432;2022-10-16T04:19:16;87.95;;;19.30;;
41685;SDS011;27370;42.764;23.432;2022-10-16T04:21:41;59.25;;;16.52;;
41685;SDS011;27370;42.764;23.432;2022-10-16T04:24:07;26.88;;;14.40;;
41685;SDS011;27370;42.764;23.432;2022-10-16T04:26:32;25.35;;;14.13;;
41685;SDS011;27370;42.764;23.432;2022-10-16T04:28:58;26.50;;;15.63;;
41685;SDS011;27370;42.764;23.432;2022-10-16T04:31:23;28.48;;;16.13;;
41685;SDS011;27370;42.764;23.432;2022-10-16T04:33:48;24.67;;;15.27;;
41685;SDS011;27370;42.764;23.432;2022-10-16T04:36:14;33.65;;;13.70;;
41685;SDS011;27370;42.764;23.432;2022-10-16T04:38:39;28.50;;;15.65;;
41685;SDS011;27370;42.764;23.432;2022-10-16T04:41:06;26.13;;;15.88;;
41685;SDS011;27370;42.764;23.432;2022-10-16T04:43:32;24.08;;;15.48;;
41685;SDS011;27370;42.764;23.432;2022-10-16T04:45:58;22.95;;;13.60;;
41685;SDS011;27370;42.764;23.432;2022-10-16T04:48:24;20.40;;;13.18;;
41685;SDS011;27370;42.764;23.432;2022-10-16T04:50:50;22.27;;;13.55;;
41685;SDS011;27370;42.764;23.432;2022-10-16T04:53:15;23.48;;;13.15;;
41685;SDS011;27370;42.764;23.432;2022-10-16T04:55:41;23.63;;;12.80;;
41685;SDS011;27370;42.764;23.432;2022-10-16T04:58:07;24.85;;;13.55;;
41685;SDS011;27370;42.764;23.432;2022-10-16T05:00:33;25.75;;;14.52;;
41685;SDS011;27370;42.764;23.432;2022-10-16T05:02:59;22.77;;;13.52;;
41685;SDS011;27370;42.764;23.432;2022-10-16T05:05:26;35.45;;;15.10;;
41685;SDS011;27370;42.764;23.432;2022-10-16T05:07:52;28.42;;;15.70;;
41685;SDS011;27370;42.764;23.432;2022-10-16T05:10:17;26.23;;;15.40;;
41685;SDS011;27370;42.764;23.432;2022-10-16T05:12:43;29.50;;;18.48;;
41685;SDS011;27370;42.764;23.432;2022-10-16T05:15:09;38.17;;;23.92;;
41685;SDS011;27370;42.764;23.432;2022-10-16T05:17:35;37.40;;;22.48;;
41685;SDS011;27370;42.764;23.432;2022-10-16T05:20:00;25.25;;;16.10;;
41685;SDS011;27370;42.764;23.432;2022-10-16T05:22:25;23.55;;;14.10;;
41685;SDS011;27370;42.764;23.432;2022-10-16T05:24:51;21.45;;;13.75;;
41685;SDS011;27370;42.764;23.432;2022-10-16T05:27:16;21.55;;;12.95;;
41685;SDS011;27370;42.764;23.432;2022-10-16T05:29:48;21.52;;;12.98;;
41685;SDS011;27370;42.764;23.432;2022-10-16T05:32:14;20.90;;;13.52;;
41685;SDS011;27370;42.764;23.432;2022-10-16T05:34:41;22.98;;;15.07;;
41685;SDS011;27370;42.764;23.432;2022-10-16T05:37:06;25.58;;;16.77;;
41685;SDS011;27370;42.764;23.432;2022-10-16T05:39:32;21.17;;;14.77;;
41685;SDS011;27370;42.764;23.432;2022-10-16T05:41:57;18.92;;;12.70;;
41685;SDS011;27370;42.764;23.432;2022-10-16T05:44:23;15.20;;;10.88;;
41685;SDS011;27370;42.764;23.432;2022-10-16T05:46:48;16.40;;;9.80;;
41685;SDS011;27370;42.764;23.432;2022-10-16T05:49:14;15.00;;;10.18;;
41685;SDS011;27370;42.764;23.432;2022-10-16T05:51:39;16.35;;;10.30;;
41685;SDS011;27370;42.764;23.432;2022-10-16T05:54:06;13.85;;;9.52;;
41685;SDS011;27370;42.764;23.432;2022-10-16T05:56:31;13.77;;;9.48;;
41685;SDS011;27370;42.764;23.432;2022-10-16T05:58:57;13.85;;;9.70;;
41685;SDS011;27370;42.764;23.432;2022-10-16T06:01:22;14.95;;;9.55;;
41685;SDS011;27370;42.764;23.432;2022-10-16T06:03:52;15.35;;;9.68;;
41685;SDS011;27370;42.764;23.432;2022-10-16T06:06:18;17.25;;;10.18;;
41685;SDS011;27370;42.764;23.432;2022-10-16T06:08:46;15.70;;;9.57;;
41685;SDS011;27370;42.764;23.432;2022-10-16T06:11:14;14.05;;;8.90;;
41685;SDS011;27370;42.764;23.432;2022-10-16T06:13:41;15.73;;;9.43;;
41685;SDS011;27370;42.764;23.432;2022-10-16T06:16:08;15.00;;;9.43;;
41685;SDS011;27370;42.764;23.432;2022-10-16T06:18:35;15.48;;;10.50;;
41685;SDS011;27370;42.764;23.432;2022-10-16T06:21:06;14.63;;;10.35;;
41685;SDS011;27370;42.764;23.432;2022-10-16T06:23:33;16.92;;;10.13;;
41685;SDS011;27370;42.764;23.432;2022-10-16T06:26:05;15.23;;;9.88;;
41685;SDS011;27370;42.764;23.432;2022-10-16T06:28:31;18.25;;;10.52;;
41685;SDS011;27370;42.764;23.432;2022-10-16T06:31:01;16.30;;;9.30;;
41685;SDS011;27370;42.764;23.432;2022-10-16T06:33:27;15.63;;;10.40;;
41685;SDS011;27370;42.764;23.432;2022-10-16T06:35:53;15.23;;;10.75;;
41685;SDS011;27370;42.764;23.432;2022-10-16T06:38:18;16.17;;;10.02;;
41685;SDS011;27370;42.764;23.432;2022-10-16T06:40:44;15.88;;;10.50;;
41685;SDS011;27370;42.764;23.432;2022-10-16T06:43:09;16.88;;;10.68;;
41685;SDS011;27370;42.764;23.432;2022-10-16T06:45:34;14.25;;;10.10;;
41685;SDS011;27370;42.764;23.432;2022-10-16T06:48:00;14.40;;;9.93;;
41685;SDS011;27370;42.764;23.432;2022-10-16T06:50:25;16.33;;;9.52;;
41685;SDS011;27370;42.764;23.432;2022-10-16T06:52:51;14.70;;;9.23;;
41685;SDS011;27370;42.764;23.432;2022-10-16T06:55:16;12.27;;;8.93;;
41685;SDS011;27370;42.764;23.432;2022-10-16T06:57:42;15.05;;;9.35;;
41685;SDS011;27370;42.764;23.432;2022-10-16T07:00:09;13.77;;;9.95;;
41685;SDS011;27370;42.764;23.432;2022-10-16T07:02:34;14.30;;;9.77;;
41685;SDS011;27370;42.764;23.432;2022-10-16T07:05:00;16.05;;;9.63;;
41685;SDS011;27370;42.764;23.432;2022-10-16T07:07:25;14.35;;;9.48;;
41685;SDS011;27370;42.764;23.432;2022-10-16T07:09:51;16.23;;;8.82;;
41685;SDS011;27370;42.764;23.432;2022-10-16T07:12:20;14.32;;;9.73;;
41685;SDS011;27370;42.764;23.432;2022-10-16T07:14:45;13.13;;;9.00;;
41685;SDS011;27370;42.764;23.432;2022-10-16T07:17:11;13.00;;;8.38;;
41685;SDS011;27370;42.764;23.432;2022-10-16T07:19:36;15.32;;;8.60;;
41685;SDS011;27370;42.764;23.432;2022-10-16T07:22:02;12.50;;;8.30;;
41685;SDS011;27370;42.764;23.432;2022-10-16T07:24:28;14.20;;;9.18;;
41685;SDS011;27370;42.764;23.432;2022-10-16T07:26:53;14.10;;;9.35;;
41685;SDS011;27370;42.764;23.432;2022-10-16T07:29:19;14.35;;;9.88;;
41685;SDS011;27370;42.764;23.432;2022-10-16T07:31:47;15.10;;;9.80;;
41685;SDS011;27370;42.764;23.432;2022-10-16T07:34:13;15.13;;;9.38;;
41685;SDS011;27370;42.764;23.432;2022-10-16T07:36:40;15.27;;;9.63;;
41685;SDS011;27370;42.764;23.432;2022-10-16T07:39:06;14.25;;;9.35;;
41685;SDS011;27370;42.764;23.432;2022-10-16T07:41:32;14.07;;;9.05;;
41685;SDS011;27370;42.764;23.432;2022-10-16T07:44:01;12.98;;;6.43;;
41685;SDS011;27370;42.764;23.432;2022-10-16T07:46:27;11.48;;;6.80;;
41685;SDS011;27370;42.764;23.432;2022-10-16T07:48:53;11.75;;;6.95;;
41685;SDS011;27370;42.764;23.432;2022-10-16T07:51:20;12.20;;;7.00;;
41685;SDS011;27370;42.764;23.432;2022-10-16T07:53:47;13.95;;;8.75;;
41685;SDS011;27370;42.764;23.432;2022-10-16T07:56:13;15.43;;;11.30;;
41685;SDS011;27370;42.764;23.432;2022-10-16T07:58:40;14.32;;;8.75;;
41685;SDS011;27370;42.764;23.432;2022-10-16T08:01:06;11.93;;;7.03;;
41685;SDS011;27370;42.764;23.432;2022-10-16T08:03:34;11.52;;;7.30;;
41685;SDS011;27370;42.764;23.432;2022-10-16T08:05:59;11.98;;;6.70;;
41685;SDS011;27370;42.764;23.432;2022-10-16T08:08:27;13.20;;;7.65;;
41685;SDS011;27370;42.764;23.432;2022-10-16T08:10:53;11.43;;;6.65;;
41685;SDS011;27370;42.764;23.432;2022-10-16T08:13:19;11.25;;;6.80;;
41685;SDS011;27370;42.764;23.432;2022-10-16T08:15:44;10.13;;;5.60;;
41685;SDS011;27370;42.764;23.432;2022-10-16T08:18:11;10.35;;;6.18;;
41685;SDS011;27370;42.764;23.432;2022-10-16T08:20:38;11.90;;;5.57;;
41685;SDS011;27370;42.764;23.432;2022-10-16T08:23:04;12.77;;;5.60;;
41685;SDS011;27370;42.764;23.432;2022-10-16T08:25:30;12.55;;;5.25;;
41685;SDS011;27370;42.764;23.432;2022-10-16T08:27:55;9.40;;;4.93;;
41685;SDS011;27370;42.764;23.432;2022-10-16T08:30:22;10.40;;;5.03;;
41685;SDS011;27370;42.764;23.432;2022-10-16T08:32:48;13.70;;;6.40;;
41685;SDS011;27370;42.764;23.432;2022-10-16T08:35:14;11.73;;;4.38;;
41685;SDS011;27370;42.764;23.432;2022-10-16T08:37:40;17.08;;;7.65;;
41685;SDS011;27370;42.764;23.432;2022-10-16T08:40:06;10.48;;;5.28;;
41685;SDS011;27370;42.764;23.432;2022-10-16T08:48:23;14.05;;;7.40;;
41685;SDS011;27370;42.764;23.432;2022-10-16T08:50:56;10.20;;;4.97;;
41685;SDS011;27370;42.764;23.432;2022-10-16T08:53:31;8.80;;;4.43;;
41685;SDS011;27370;42.764;23.432;2022-10-16T08:56:07;10.18;;;4.35;;
41685;SDS011;27370;42.764;23.432;2022-10-16T08:58:32;11.50;;;4.30;;
41685;SDS011;27370;42.764;23.432;2022-10-16T09:00:59;8.35;;;4.13;;
41685;SDS011;27370;42.764;23.432;2022-10-16T09:03:42;9.60;;;4.30;;
41685;SDS011;27370;42.764;23.432;2022-10-16T09:06:17;10.48;;;4.28;;
41685;SDS011;27370;42.764;23.432;2022-10-16T09:12:10;7.53;;;3.80;;
41685;SDS011;27370;42.764;23.432;2022-10-16T09:20:03;7.95;;;3.92;;
41685;SDS011;27370;42.764;23.432;2022-10-16T09:23:00;10.05;;;4.15;;
41685;SDS011;27370;42.764;23.432;2022-10-16T09:25:39;8.30;;;3.70;;
41685;SDS011;27370;42.764;23.432;2022-10-16T09:28:07;8.57;;;4.35;;
41685;SDS011;27370;42.764;23.432;2022-10-16T09:30:34;8.93;;;4.35;;
41685;SDS011;27370;42.764;23.432;2022-10-16T09:32:59;7.72;;;3.42;;
41685;SDS011;27370;42.764;23.432;2022-10-16T09:35:39;10.38;;;3.85;;
41685;SDS011;27370;42.764;23.432;2022-10-16T09:41:03;8.20;;;4.15;;
41685;SDS011;27370;42.764;23.432;2022-10-16T09:43:59;10.43;;;4.28;;
41685;SDS011;27370;42.764;23.432;2022-10-16T09:46:28;10.00;;;4.90;;
41685;SDS011;27370;42.764;23.432;2022-10-16T09:48:58;11.23;;;4.13;;
41685;SDS011;27370;42.764;23.432;2022-10-16T09:53:57;8.02;;;3.90;;
41685;SDS011;27370;42.764;23.432;2022-10-16T09:56:28;9.32;;;3.90;;
41685;SDS011;27370;42.764;23.432;2022-10-16T09:58:58;8.52;;;3.90;;
41685;SDS011;27370;42.764;23.432;2022-10-16T10:01:29;9.07;;;3.83;;
41685;SDS011;27370;42.764;23.432;2022-10-16T10:04:01;10.27;;;5.00;;
41685;SDS011;27370;42.764;23.432;2022-10-16T10:06:29;7.72;;;3.45;;
41685;SDS011;27370;42.764;23.432;2022-10-16T10:09:03;9.52;;;3.88;;
41685;SDS011;27370;42.764;23.432;2022-10-16T10:16:43;6.90;;;3.70;;
41685;SDS011;27370;42.764;23.432;2022-10-16T10:19:13;8.10;;;3.90;;
41685;SDS011;27370;42.764;23.432;2022-10-16T10:21:40;10.23;;;4.68;;
41685;SDS011;27370;42.764;23.432;2022-10-16T10:24:09;8.80;;;4.10;;
41685;SDS011;27370;42.764;23.432;2022-10-16T10:26:35;6.63;;;3.63;;
41685;SDS011;27370;42.764;23.432;2022-10-16T10:37:07;6.55;;;3.30;;
41685;SDS011;27370;42.764;23.432;2022-10-16T10:42:59;7.85;;;3.80;;
41685;SDS011;27370;42.764;23.432;2022-10-16T10:57:41;9.80;;;4.13;;
41685;SDS011;27370;42.764;23.432;2022-10-16T11:07:54;9.63;;;3.63;;
41685;SDS011;27370;42.764;23.432;2022-10-16T11:13:40;9.13;;;3.90;;
41685;SDS011;27370;42.764;23.432;2022-10-16T11:16:19;8.50;;;4.22;;
41685;SDS011;27370;42.764;23.432;2022-10-16T11:18:52;9.00;;;3.90;;
41685;SDS011;27370;42.764;23.432;2022-10-16T11:21:23;8.18;;;3.72;;
41685;SDS011;27370;42.764;23.432;2022-10-16T11:24:14;7.35;;;3.40;;
41685;SDS011;27370;42.764;23.432;2022-10-16T11:26:46;5.30;;;2.97;;
41685;SDS011;27370;42.764;23.432;2022-10-16T11:29:16;5.35;;;2.97;;
41685;SDS011;27370;42.764;23.432;2022-10-16T11:31:50;5.70;;;2.88;;
41685;SDS011;27370;42.764;23.432;2022-10-16T11:39:39;6.30;;;2.75;;
41685;SDS011;27370;42.764;23.432;2022-10-16T11:55:42;5.45;;;2.60;;
41685;SDS011;27370;42.764;23.432;2022-10-16T11:58:30;5.65;;;2.45;;
41685;SDS011;27370;42.764;23.432;2022-10-16T12:08:46;21.92;;;13.38;;
41685;SDS011;27370;42.764;23.432;2022-10-16T12:11:46;5.88;;;3.13;;
41685;SDS011;27370;42.764;23.432;2022-10-16T12:16:53;7.82;;;3.42;;
41685;SDS011;27370;42.764;23.432;2022-10-16T12:19:24;7.57;;;3.55;;
41685;SDS011;27370;42.764;23.432;2022-10-16T12:22:34;6.40;;;2.50;;
41685;SDS011;27370;42.764;23.432;2022-10-16T12:25:03;5.75;;;2.40;;
41685;SDS011;27370;42.764;23.432;2022-10-16T12:27:30;4.03;;;2.10;;
41685;SDS011;27370;42.764;23.432;2022-10-16T12:29:58;4.53;;;2.13;;
41685;SDS011;27370;42.764;23.432;2022-10-16T12:32:30;2.97;;;1.75;;
41685;SDS011;27370;42.764;23.432;2022-10-16T12:34:56;4.07;;;2.03;;
41685;SDS011;27370;42.764;23.432;2022-10-16T12:37:23;3.45;;;1.90;;
41685;SDS011;27370;42.764;23.432;2022-10-16T12:39:57;5.15;;;2.00;;
41685;SDS011;27370;42.764;23.432;2022-10-16T12:44:51;5.55;;;2.65;;
41685;SDS011;27370;42.764;23.432;2022-10-16T12:47:47;3.65;;;2.00;;
41685;SDS011;27370;42.764;23.432;2022-10-16T12:52:51;4.85;;;2.13;;
41685;SDS011;27370;42.764;23.432;2022-10-16T12:55:19;4.13;;;1.90;;
41685;SDS011;27370;42.764;23.432;2022-10-16T13:00:50;5.05;;;2.35;;
41685;SDS011;27370;42.764;23.432;2022-10-16T13:11:58;4.18;;;2.10;;
41685;SDS011;27370;42.764;23.432;2022-10-16T13:19:52;6.50;;;2.30;;
41685;SDS011;27370;42.764;23.432;2022-10-16T13:22:37;5.65;;;2.20;;
41685;SDS011;27370;42.764;23.432;2022-10-16T13:28:05;4.82;;;1.95;;
41685;SDS011;27370;42.764;23.432;2022-10-16T13:30:42;4.70;;;2.30;;
41685;SDS011;27370;42.764;23.432;2022-10-16T13:33:16;4.40;;;2.00;;
41685;SDS011;27370;42.764;23.432;2022-10-16T13:35:48;7.55;;;2.40;;
41685;SDS011;27370;42.764;23.432;2022-10-16T13:38:18;4.32;;;2.20;;
41685;SDS011;27370;42.764;23.432;2022-10-16T13:43:26;4.53;;;1.98;;
41685;SDS011;27370;42.764;23.432;2022-10-16T13:46:14;3.25;;;1.90;;
41685;SDS011;27370;42.764;23.432;2022-10-16T13:48:38;4.45;;;2.00;;
41685;SDS011;27370;42.764;23.432;2022-10-16T13:53:33;4.43;;;2.03;;
41685;SDS011;27370;42.764;23.432;2022-10-16T13:56:02;7.07;;;2.10;;
41685;SDS011;27370;42.764;23.432;2022-10-16T13:58:29;7.22;;;2.60;;
41685;SDS011;27370;42.764;23.432;2022-10-16T14:00:56;5.07;;;2.28;;
41685;SDS011;27370;42.764;23.432;2022-10-16T14:03:33;4.22;;;1.95;;
41685;SDS011;27370;42.764;23.432;2022-10-16T14:06:01;4.00;;;2.08;;
41685;SDS011;27370;42.764;23.432;2022-10-16T14:08:31;10.50;;;4.28;;
41685;SDS011;27370;42.764;23.432;2022-10-16T14:10:58;11.05;;;5.18;;
41685;SDS011;27370;42.764;23.432;2022-10-16T14:13:29;5.93;;;2.53;;
41685;SDS011;27370;42.764;23.432;2022-10-16T14:16:05;10.32;;;3.55;;
41685;SDS011;27370;42.764;23.432;2022-10-16T14:18:41;3.83;;;2.10;;
41685;SDS011;27370;42.764;23.432;2022-10-16T14:21:20;5.67;;;2.30;;
41685;SDS011;27370;42.764;23.432;2022-10-16T14:23:46;4.40;;;2.40;;
41685;SDS011;27370;42.764;23.432;2022-10-16T14:26:12;7.95;;;2.35;;
41685;SDS011;27370;42.764;23.432;2022-10-16T14:28:40;3.95;;;2.20;;
41685;SDS011;27370;42.764;23.432;2022-10-16T14:33:44;4.63;;;2.33;;
41685;SDS011;27370;42.764;23.432;2022-10-16T14:38:35;5.65;;;2.35;;
41685;SDS011;27370;42.764;23.432;2022-10-16T14:41:03;3.92;;;2.22;;
41685;SDS011;27370;42.764;23.432;2022-10-16T14:43:40;5.25;;;2.60;;
41685;SDS011;27370;42.764;23.432;2022-10-16T14:46:14;5.63;;;2.42;;
41685;SDS011;27370;42.764;23.432;2022-10-16T14:48:42;5.22;;;2.88;;
41685;SDS011;27370;42.764;23.432;2022-10-16T14:51:18;6.68;;;2.63;;
41685;SDS011;27370;42.764;23.432;2022-10-16T14:53:45;4.63;;;2.15;;
41685;SDS011;27370;42.764;23.432;2022-10-16T14:56:16;5.93;;;2.42;;
41685;SDS011;27370;42.764;23.432;2022-10-16T14:58:43;5.10;;;2.58;;
41685;SDS011;27370;42.764;23.432;2022-10-16T15:01:09;6.82;;;2.50;;
41685;SDS011;27370;42.764;23.432;2022-10-16T15:03:36;7.35;;;2.60;;
41685;SDS011;27370;42.764;23.432;2022-10-16T15:06:03;6.03;;;2.45;;
41685;SDS011;27370;42.764;23.432;2022-10-16T15:08:29;4.63;;;2.30;;
41685;SDS011;27370;42.764;23.432;2022-10-16T15:10:54;4.72;;;2.30;;
41685;SDS011;27370;42.764;23.432;2022-10-16T15:13:20;4.78;;;2.20;;
41685;SDS011;27370;42.764;23.432;2022-10-16T15:15:46;4.55;;;2.20;;
41685;SDS011;27370;42.764;23.432;2022-10-16T15:18:14;9.13;;;2.78;;
41685;SDS011;27370;42.764;23.432;2022-10-16T15:20:47;5.72;;;2.40;;
41685;SDS011;27370;42.764;23.432;2022-10-16T15:23:15;8.73;;;3.22;;
41685;SDS011;27370;42.764;23.432;2022-10-16T15:28:16;10.95;;;4.70;;
41685;SDS011;27370;42.764;23.432;2022-10-16T15:30:42;6.03;;;2.65;;
41685;SDS011;27370;42.764;23.432;2022-10-16T15:33:13;6.22;;;2.20;;
41685;SDS011;27370;42.764;23.432;2022-10-16T15:35:40;5.30;;;2.50;;
41685;SDS011;27370;42.764;23.432;2022-10-16T15:38:06;7.20;;;3.35;;
41685;SDS011;27370;42.764;23.432;2022-10-16T15:40:34;5.45;;;2.40;;
41685;SDS011;27370;42.764;23.432;2022-10-16T15:42:59;5.50;;;2.60;;
41685;SDS011;27370;42.764;23.432;2022-10-16T15:45:25;6.28;;;2.90;;
41685;SDS011;27370;42.764;23.432;2022-10-16T15:47:50;6.85;;;2.33;;
41685;SDS011;27370;42.764;23.432;2022-10-16T15:50:16;6.55;;;2.78;;
41685;SDS011;27370;42.764;23.432;2022-10-16T15:52:42;6.15;;;2.80;;
41685;SDS011;27370;42.764;23.432;2022-10-16T15:55:08;4.60;;;2.45;;
41685;SDS011;27370;42.764;23.432;2022-10-16T15:57:35;8.38;;;2.90;;
41685;SDS011;27370;42.764;23.432;2022-10-16T16:00:07;5.18;;;2.42;;
41685;SDS011;27370;42.764;23.432;2022-10-16T16:02:37;5.70;;;2.35;;
41685;SDS011;27370;42.764;23.432;2022-10-16T16:05:03;7.00;;;2.80;;
41685;SDS011;27370;42.764;23.432;2022-10-16T16:07:31;7.38;;;3.25;;
41685;SDS011;27370;42.764;23.432;2022-10-16T16:09:58;6.35;;;2.85;;
41685;SDS011;27370;42.764;23.432;2022-10-16T16:12:23;9.27;;;3.10;;
41685;SDS011;27370;42.764;23.432;2022-10-16T16:14:49;10.32;;;3.60;;
41685;SDS011;27370;42.764;23.432;2022-10-16T16:17:14;10.00;;;4.07;;
41685;SDS011;27370;42.764;23.432;2022-10-16T16:19:40;4.18;;;2.40;;
41685;SDS011;27370;42.764;23.432;2022-10-16T16:22:05;4.68;;;2.67;;
41685;SDS011;27370;42.764;23.432;2022-10-16T16:24:31;6.53;;;2.90;;
41685;SDS011;27370;42.764;23.432;2022-10-16T16:26:57;6.70;;;2.60;;
41685;SDS011;27370;42.764;23.432;2022-10-16T16:29:22;11.75;;;4.55;;
41685;SDS011;27370;42.764;23.432;2022-10-16T16:31:47;5.82;;;2.88;;
41685;SDS011;27370;42.764;23.432;2022-10-16T16:34:13;7.25;;;3.10;;
41685;SDS011;27370;42.764;23.432;2022-10-16T16:36:40;8.63;;;3.15;;
41685;SDS011;27370;42.764;23.432;2022-10-16T16:39:06;7.10;;;2.95;;
41685;SDS011;27370;42.764;23.432;2022-10-16T16:41:32;8.63;;;3.60;;
41685;SDS011;27370;42.764;23.432;2022-10-16T16:44:02;7.25;;;3.20;;
41685;SDS011;27370;42.764;23.432;2022-10-16T16:46:33;8.77;;;3.20;;
41685;SDS011;27370;42.764;23.432;2022-10-16T16:48:59;7.25;;;3.05;;
41685;SDS011;27370;42.764;23.432;2022-10-16T16:51:26;6.97;;;3.08;;
41685;SDS011;27370;42.764;23.432;2022-10-16T16:53:52;6.93;;;2.88;;
41685;SDS011;27370;42.764;23.432;2022-10-16T16:56:19;7.22;;;3.20;;
41685;SDS011;27370;42.764;23.432;2022-10-16T16:58:46;7.75;;;3.13;;